TimeHST,TemperatureF,Dew PointF,Humidity,Sea Level PressureIn,VisibilityMPH,Wind Direction,Wind SpeedMPH,Gust SpeedMPH,PrecipitationIn,Events,Conditions,WindDirDegrees,DateUTC
12:53 AM,64.9,60.1,84,30.04,10.0,West,9.2,-,N/A,,Clear,270,2012-02-03 10:53:00
1:53 AM,64.9,60.1,84,30.02,10.0,WNW,9.2,-,N/A,,Clear,290,2012-02-03 11:53:00
2:53 AM,64.9,59.0,81,30.00,10.0,West,9.2,-,N/A,,Clear,270,2012-02-03 12:53:00
3:53 AM,63.0,59.0,87,29.99,10.0,West,9.2,-,N/A,,Clear,280,2012-02-03 13:53:00
4:53 AM,64.0,59.0,84,29.99,10.0,West,8.1,-,N/A,,Clear,270,2012-02-03 14:53:00
5:53 AM,63.0,57.9,84,30.00,10.0,West,6.9,-,N/A,,Clear,260,2012-02-03 15:53:00
6:53 AM,63.0,59.0,87,30.01,10.0,WSW,8.1,-,N/A,,Clear,250,2012-02-03 16:53:00
7:53 AM,64.0,59.0,84,30.02,10.0,West,8.1,-,N/A,,Clear,270,2012-02-03 17:53:00
8:53 AM,69.1,61.0,75,30.02,10.0,West,5.8,-,N/A,,Clear,270,2012-02-03 18:53:00
9:53 AM,73.9,62.1,66,30.02,10.0,SSW,3.5,-,N/A,,Clear,210,2012-02-03 19:53:00
10:53 AM,75.0,63.0,66,30.01,10.0,Variable,6.9,-,N/A,,Clear,0,2012-02-03 20:53:00
11:53 AM,77.0,63.0,62,29.99,10.0,South,9.2,-,N/A,,Scattered Clouds,170,2012-02-03 21:53:00
12:53 PM,78.1,62.1,58,29.95,10.0,South,11.5,-,N/A,,Mostly Cloudy,180,2012-02-03 22:53:00
1:53 PM,78.1,62.1,58,29.93,10.0,South,12.7,-,N/A,,Clear,180,2012-02-03 23:53:00
2:53 PM,78.1,62.1,58,29.91,10.0,SW,11.5,-,N/A,,Scattered Clouds,230,2012-02-04 00:53:00
3:53 PM,75.9,62.1,62,29.91,10.0,North,12.7,-,N/A,,Mostly Cloudy,10,2012-02-04 01:53:00
3:54 PM,75.2,62.6,65,29.92,10.0,North,12.7,-,N/A,,Scattered Clouds,10,2012-02-04 01:54:00
4:53 PM,75.9,63.0,64,29.92,10.0,NE,13.8,-,N/A,,Scattered Clouds,40,2012-02-04 02:53:00
5:53 PM,73.9,63.0,68,29.92,10.0,ENE,10.4,-,N/A,,Mostly Cloudy,70,2012-02-04 03:53:00
6:53 PM,72.0,63.0,73,29.93,10.0,East,6.9,-,N/A,,Mostly Cloudy,90,2012-02-04 04:53:00
7:00 PM,71.6,62.6,73,29.94,10.0,East,4.6,-,N/A,,Partly Cloudy,90,2012-02-04 05:00:00
7:05 PM,71.6,62.6,73,29.94,10.0,East,5.8,-,N/A,,Clear,100,2012-02-04 05:05:00
7:53 PM,68.0,62.1,81,29.94,10.0,WSW,3.5,-,N/A,,Clear,240,2012-02-04 05:53:00
8:53 PM,68.0,63.0,84,29.95,10.0,West,4.6,-,N/A,,Clear,270,2012-02-04 06:53:00
9:53 PM,66.9,63.0,87,29.94,10.0,West,5.8,-,N/A,,Clear,280,2012-02-04 07:53:00
10:53 PM,66.0,61.0,84,29.93,10.0,WSW,4.6,-,N/A,,Clear,250,2012-02-04 08:53:00
11:53 PM,64.9,61.0,87,29.92,10.0,West,8.1,-,N/A,,Clear,270,2012-02-04 09:53:00